TimeCDT,TemperatureF,Dew PointF,Humidity,Sea Level PressureIn,VisibilityMPH,Wind Direction,Wind SpeedMPH,Gust SpeedMPH,PrecipitationIn,Events,Conditions,WindDirDegrees,DateUTC
12:15 AM,43.9,38.5,81,30.15,10.0,SE,6.9,-,N/A,,Clear,130,2013-05-06 05:15:00
12:35 AM,42.8,38.7,85,30.14,10.0,SE,5.8,-,N/A,,Clear,130,2013-05-06 05:35:00
12:55 AM,43.2,38.5,84,30.14,10.0,SE,6.9,-,N/A,,Clear,130,2013-05-06 05:55:00
1:35 AM,42.3,38.1,85,30.14,10.0,SE,3.5,-,N/A,,Clear,130,2013-05-06 06:35:00
1:55 AM,41.2,37.9,88,30.14,10.0,East,3.5,-,N/A,,Clear,100,2013-05-06 06:55:00
2:15 AM,41.0,38.3,90,30.13,10.0,ESE,5.8,-,N/A,,Clear,110,2013-05-06 07:15:00
2:35 AM,39.7,37.4,91,30.13,7.0,East,6.9,-,N/A,,Clear,100,2013-05-06 07:35:00
2:55 AM,39.4,37.4,93,30.13,7.0,East,6.9,-,N/A,,Clear,100,2013-05-06 07:55:00
3:15 AM,38.8,36.9,93,30.13,7.0,East,5.8,-,N/A,,Clear,100,2013-05-06 08:15:00
3:35 AM,39.0,37.2,93,30.13,7.0,ESE,4.6,-,N/A,,Clear,110,2013-05-06 08:35:00
3:55 AM,40.5,38.8,94,30.13,4.0,Calm,Calm,-,N/A,,Clear,0,2013-05-06 08:55:00
4:15 AM,39.4,37.9,95,30.13,0.8,Calm,Calm,-,N/A,,Mist,0,2013-05-06 09:15:00
4:35 AM,39.2,37.6,94,30.13,0.5,Calm,Calm,-,N/A,Fog,Fog,0,2013-05-06 09:35:00
4:55 AM,37.0,35.6,95,30.13,0.2,Calm,Calm,-,N/A,Fog,Fog,0,2013-05-06 09:55:00
5:15 AM,35.6,34.2,94,30.13,0.2,Calm,Calm,-,N/A,Fog,Fog,0,2013-05-06 10:15:00
5:35 AM,35.1,33.8,95,30.13,0.2,Calm,Calm,-,N/A,Fog,Fog,0,2013-05-06 10:35:00
5:55 AM,34.3,33.3,96,30.13,0.2,Calm,Calm,-,N/A,Fog,Fog,0,2013-05-06 10:55:00
6:15 AM,33.4,32.4,96,30.13,0.2,Calm,Calm,-,N/A,Fog,Fog,0,2013-05-06 11:15:00
6:35 AM,33.6,32.5,96,30.14,0.2,Calm,Calm,-,N/A,Fog,Fog,0,2013-05-06 11:35:00
6:55 AM,33.8,32.9,96,30.14,0.2,NW,3.5,-,N/A,Fog,Fog,310,2013-05-06 11:55:00
7:15 AM,34.0,33.1,96,30.14,0.2,Calm,Calm,-,N/A,Fog,Fog,0,2013-05-06 12:15:00
7:35 AM,36.5,35.4,96,30.15,0.2,Calm,Calm,-,N/A,Fog,Fog,0,2013-05-06 12:35:00
7:55 AM,40.1,39.2,97,30.15,0.2,Calm,Calm,-,N/A,Fog,Fog,0,2013-05-06 12:55:00
8:15 AM,43.2,41.9,95,30.15,3.0,Calm,Calm,-,N/A,,Scattered Clouds,0,2013-05-06 13:15:00
8:35 AM,46.0,45.0,96,30.15,10.0,Calm,Calm,-,N/A,,Clear,0,2013-05-06 13:35:00
8:55 AM,48.2,46.9,95,30.15,10.0,SSE,4.6,-,N/A,,Clear,150,2013-05-06 13:55:00
9:15 AM,49.5,48.4,96,30.16,10.0,South,4.6,-,N/A,,Clear,170,2013-05-06 14:15:00
9:35 AM,51.3,49.5,94,30.16,10.0,SSE,3.5,-,N/A,,Clear,150,2013-05-06 14:35:00
9:55 AM,53.1,50.4,91,30.16,10.0,SSE,6.9,-,N/A,,Clear,150,2013-05-06 14:55:00
10:15 AM,56.7,49.1,76,30.16,10.0,SSW,6.9,-,N/A,,Clear,200,2013-05-06 15:15:00
10:35 AM,58.3,47.8,68,30.16,10.0,South,4.6,-,N/A,,Scattered Clouds,170,2013-05-06 15:35:00
10:55 AM,60.6,47.3,61,30.16,10.0,SSW,8.1,-,N/A,,Scattered Clouds,200,2013-05-06 15:55:00
11:15 AM,60.8,45.5,57,30.15,10.0,South,6.9,-,N/A,,Scattered Clouds,190,2013-05-06 16:15:00
11:35 AM,61.9,43.3,51,30.15,10.0,South,3.5,-,N/A,,Scattered Clouds,170,2013-05-06 16:35:00
11:55 AM,62.8,41.5,46,30.14,10.0,SE,3.5,-,N/A,,Clear,130,2013-05-06 16:55:00
12:15 PM,63.3,40.5,43,30.14,10.0,SSW,5.8,-,N/A,,Clear,200,2013-05-06 17:15:00
12:35 PM,63.1,37.4,39,30.13,10.0,Calm,Calm,-,N/A,,Scattered Clouds,0,2013-05-06 17:35:00
12:55 PM,64.6,40.6,42,30.13,10.0,SSE,9.2,16.1,N/A,,Scattered Clouds,150,2013-05-06 17:55:00
1:15 PM,65.3,39.4,39,30.11,10.0,ESE,8.1,-,N/A,,Clear,120,2013-05-06 18:15:00
1:35 PM,64.9,37.9,37,30.11,10.0,SSW,3.5,-,N/A,,Clear,200,2013-05-06 18:35:00
1:55 PM,65.5,36.3,34,30.10,10.0,ESE,5.8,-,N/A,,Clear,120,2013-05-06 18:55:00
2:15 PM,66.7,36.7,33,30.09,10.0,East,5.8,-,N/A,,Clear,80,2013-05-06 19:15:00
2:35 PM,66.9,35.8,32,30.09,10.0,Calm,Calm,-,N/A,,Clear,0,2013-05-06 19:35:00
2:55 PM,67.6,36.1,31,30.08,10.0,SE,5.8,-,N/A,,Clear,140,2013-05-06 19:55:00
3:15 PM,68.5,36.5,31,30.07,10.0,SE,8.1,-,N/A,,Clear,140,2013-05-06 20:15:00
3:35 PM,68.4,35.8,30,30.07,10.0,SE,3.5,-,N/A,,Clear,130,2013-05-06 20:35:00
3:55 PM,68.9,35.4,29,30.06,10.0,South,5.8,-,N/A,,Clear,170,2013-05-06 20:55:00
4:15 PM,68.9,34.3,28,30.05,10.0,East,5.8,-,N/A,,Clear,90,2013-05-06 21:15:00
4:35 PM,69.6,34.2,27,30.04,10.0,SSE,6.9,17.3,N/A,,Clear,150,2013-05-06 21:35:00
4:55 PM,69.1,33.1,26,30.04,10.0,Calm,Calm,-,N/A,,Clear,0,2013-05-06 21:55:00
5:15 PM,69.6,33.8,27,30.04,10.0,SE,8.1,-,N/A,,Clear,130,2013-05-06 22:15:00
5:55 PM,69.1,33.8,27,30.04,10.0,SW,4.6,-,N/A,,Clear,220,2013-05-06 22:55:00
6:15 PM,68.5,33.3,27,30.04,10.0,SSE,8.1,-,N/A,,Clear,150,2013-05-06 23:15:00
6:35 PM,68.9,33.4,27,30.04,10.0,SSE,8.1,-,N/A,,Clear,150,2013-05-06 23:35:00
6:55 PM,67.8,33.3,28,30.04,10.0,SE,5.8,-,N/A,,Clear,130,2013-05-06 23:55:00
7:15 PM,68.2,32.5,27,30.04,10.0,SSE,9.2,-,N/A,,Clear,160,2013-05-07 00:15:00
7:35 PM,67.5,33.1,28,30.04,10.0,SSE,6.9,-,N/A,,Clear,150,2013-05-07 00:35:00
7:55 PM,66.2,33.3,29,30.04,10.0,South,6.9,-,N/A,,Clear,170,2013-05-07 00:55:00
8:15 PM,64.9,34.7,33,30.04,10.0,SSE,5.8,-,N/A,,Clear,160,2013-05-07 01:15:00
8:35 PM,61.9,35.1,37,30.04,10.0,SSE,6.9,-,N/A,,Clear,150,2013-05-07 01:35:00
8:55 PM,58.1,37.0,45,30.03,10.0,ESE,6.9,-,N/A,,Scattered Clouds,120,2013-05-07 01:55:00
9:15 PM,56.5,36.7,48,30.04,7.0,ESE,6.9,-,N/A,,Scattered Clouds,120,2013-05-07 02:15:00
9:35 PM,56.5,34.7,44,30.04,10.0,SE,9.2,-,N/A,,Scattered Clouds,130,2013-05-07 02:35:00
9:55 PM,54.1,35.2,49,30.04,10.0,SE,9.2,-,N/A,,Scattered Clouds,130,2013-05-07 02:55:00
10:15 PM,54.5,34.7,47,30.05,10.0,SE,9.2,-,N/A,,Clear,140,2013-05-07 03:15:00
10:35 PM,52.9,34.5,50,30.05,10.0,SE,9.2,-,N/A,,Clear,130,2013-05-07 03:35:00
10:55 PM,50.5,34.7,55,30.05,10.0,SE,8.1,-,N/A,,Clear,130,2013-05-07 03:55:00
11:15 PM,48.4,35.2,60,30.05,10.0,ESE,8.1,-,N/A,,Clear,120,2013-05-07 04:15:00
11:35 PM,48.6,34.7,59,30.04,10.0,SE,9.2,-,N/A,,Clear,130,2013-05-07 04:35:00
11:55 PM,50.9,36.0,57,30.05,10.0,SE,8.1,-,N/A,,Mostly Cloudy,130,2013-05-07 04:55:00